createdAt,value
2022-09-26T00:01:41.027Z,12.99
2022-09-26T00:04:15.955Z,12.80
2022-09-26T00:06:44.661Z,12.96
2022-09-26T00:09:13.675Z,13.18
2022-09-26T00:11:42.547Z,13.27
2022-09-26T00:14:15.473Z,13.25
2022-09-26T00:16:47.945Z,13.33
2022-09-26T00:19:17.906Z,13.43
2022-09-26T00:21:46.300Z,13.27
2022-09-26T00:24:14.383Z,13.35
2022-09-26T00:26:42.582Z,13.47
2022-09-26T00:29:12.771Z,13.53
2022-09-26T00:31:45.019Z,13.57
2022-09-26T00:34:14.227Z,13.59
2022-09-26T00:36:43.830Z,13.61
2022-09-26T00:39:14.741Z,13.60
2022-09-26T00:41:43.042Z,13.61
2022-09-26T00:44:39.413Z,13.43
2022-09-26T00:47:21.487Z,13.47
2022-09-26T00:49:52.099Z,13.43
2022-09-26T00:52:27.129Z,13.40
2022-09-26T00:55:00.152Z,13.43
2022-09-26T00:57:34.557Z,13.46
2022-09-26T01:03:48.792Z,13.46
2022-09-26T01:06:17.581Z,13.52
2022-09-26T01:08:52.528Z,13.53
2022-09-26T01:11:21.945Z,13.33
2022-09-26T01:13:52.320Z,12.98
2022-09-26T01:16:20.574Z,13.01
2022-09-26T01:18:49.676Z,13.08
2022-09-26T01:21:49.665Z,13.16
2022-09-26T01:24:49.205Z,13.27
2022-09-26T01:27:40.238Z,13.16
2022-09-26T01:30:12.814Z,13.05
2022-09-26T01:33:30.106Z,13.22
2022-09-26T01:36:24.212Z,13.30
2022-09-26T01:39:04.111Z,13.42
2022-09-26T01:41:45.775Z,13.47
2022-09-26T01:44:29.982Z,13.42
2022-09-26T01:47:05.125Z,13.46
2022-09-26T01:49:38.022Z,13.16
2022-09-26T01:52:12.173Z,13.11
2022-09-26T01:54:44.736Z,13.32
2022-09-26T01:57:17.188Z,13.38
2022-09-26T01:59:50.104Z,13.56
2022-09-26T02:02:25.642Z,13.53
2022-09-26T02:04:58.919Z,13.57
2022-09-26T02:07:33.783Z,13.61
2022-09-26T02:10:08.971Z,13.53
2022-09-26T02:12:40.149Z,13.54
2022-09-26T02:15:12.177Z,13.52
2022-09-26T02:17:45.449Z,13.54
2022-09-26T02:20:17.765Z,13.49
2022-09-26T02:22:47.114Z,13.39
2022-09-26T02:25:17.558Z,13.27
2022-09-26T02:27:45.762Z,13.05
2022-09-26T02:30:14.754Z,13.11
2022-09-26T02:32:44.430Z,13.01
2022-09-26T02:35:30.493Z,12.98
2022-09-26T02:37:59.429Z,13.06
2022-09-26T02:40:36.764Z,13.02
2022-09-26T02:43:24.516Z,13.05
2022-09-26T02:45:59.694Z,13.09
2022-09-26T02:48:44.203Z,13.08
2022-09-26T02:51:32.746Z,13.11
2022-09-26T02:54:16.748Z,12.99
2022-09-26T02:56:59.053Z,13.02
2022-09-26T02:59:35.178Z,13.09
2022-09-26T03:02:11.890Z,13.11
2022-09-26T03:04:50.015Z,13.23
2022-09-26T03:07:22.568Z,13.11
2022-09-26T03:09:54.034Z,13.13
2022-09-26T03:12:24.394Z,12.95
2022-09-26T03:14:58.426Z,13.01
2022-09-26T03:17:28.267Z,13.13
2022-09-26T03:20:04.353Z,13.19
2022-09-26T03:22:33.595Z,13.19
2022-09-26T03:25:02.078Z,13.13
2022-09-26T03:27:33.663Z,13.18
2022-09-26T03:30:01.862Z,13.29
2022-09-26T03:32:30.096Z,13.11
2022-09-26T03:34:59.598Z,12.91
2022-09-26T03:37:27.713Z,12.87
2022-09-26T03:39:56.111Z,13.04
2022-09-26T03:42:34.165Z,13.08
2022-09-26T03:45:02.731Z,13.25
2022-09-26T03:47:31.475Z,13.36
2022-09-26T03:50:01.344Z,13.44
2022-09-26T03:52:30.680Z,13.52
2022-09-26T03:54:58.795Z,13.49
2022-09-26T03:57:31.099Z,13.50
2022-09-26T04:00:10.608Z,13.53
2022-09-26T04:02:44.928Z,13.60
2022-09-26T04:05:29.889Z,13.36
2022-09-26T04:07:59.649Z,13.49
2022-09-26T04:10:30.056Z,13.52
2022-09-26T04:12:58.761Z,13.46
2022-09-26T04:15:27.009Z,13.53
2022-09-26T04:18:07.007Z,13.60
2022-09-26T04:20:36.823Z,13.63
2022-09-26T04:23:05.543Z,13.69
2022-09-26T04:25:53.845Z,13.60
2022-09-26T04:28:24.304Z,13.67
2022-09-26T04:30:52.343Z,13.69
2022-09-26T04:33:21.507Z,13.66
2022-09-26T04:36:07.191Z,13.73
2022-09-26T04:38:36.650Z,13.59
2022-09-26T04:41:07.116Z,13.52
2022-09-26T04:43:35.471Z,13.38
2022-09-26T04:46:08.366Z,13.35
2022-09-26T04:48:40.702Z,13.25
2022-09-26T04:51:22.955Z,13.22
2022-09-26T04:53:52.297Z,13.16
2022-09-26T04:56:29.246Z,13.33
2022-09-26T04:58:59.978Z,13.22
2022-09-26T05:01:38.055Z,13.27
2022-09-26T05:04:14.301Z,13.27
2022-09-26T05:06:48.827Z,13.23
2022-09-26T05:09:30.704Z,13.13
2022-09-26T05:12:08.216Z,13.15
2022-09-26T05:14:38.808Z,13.13
2022-09-26T05:17:07.040Z,13.13
2022-09-26T05:19:35.379Z,13.13
2022-09-26T05:22:24.772Z,13.22
2022-09-26T05:25:10.210Z,13.35
2022-09-26T05:27:40.731Z,13.25
2022-09-26T05:30:09.725Z,13.33
2022-09-26T05:32:37.812Z,13.42
2022-09-26T05:35:10.298Z,13.47
2022-09-26T05:37:43.643Z,13.40
2022-09-26T05:40:30.441Z,13.40
2022-09-26T05:43:05.128Z,13.19
2022-09-26T05:45:33.503Z,13.32
2022-09-26T05:48:04.019Z,13.44
2022-09-26T05:50:32.474Z,13.44
2022-09-26T05:53:04.489Z,13.43
2022-09-26T05:55:37.640Z,13.47
2022-09-26T05:58:15.824Z,13.36
2022-09-26T06:01:15.058Z,13.20
2022-09-26T06:03:45.006Z,13.27
2022-09-26T06:06:21.476Z,13.39
2022-09-26T06:08:58.419Z,13.23
2022-09-26T06:11:52.338Z,13.16
2022-09-26T06:14:26.775Z,13.16
2022-09-26T06:17:01.569Z,13.08
2022-09-26T06:19:29.736Z,13.20
2022-09-26T06:21:58.137Z,13.19
2022-09-26T06:24:27.859Z,13.32
2022-09-26T06:27:01.120Z,13.26
2022-09-26T06:29:29.653Z,13.32
2022-09-26T06:31:57.971Z,13.43
2022-09-26T06:34:26.152Z,13.47
2022-09-26T06:37:23.417Z,13.52
2022-09-26T06:39:58.513Z,13.60
2022-09-26T06:42:27.305Z,13.61
2022-09-26T06:45:18.851Z,13.70
2022-09-26T06:48:05.907Z,13.73
2022-09-26T06:50:54.296Z,13.80
2022-09-26T06:53:25.085Z,13.82
2022-09-26T06:55:54.996Z,13.75
2022-09-26T06:58:23.204Z,13.78
2022-09-26T07:00:56.949Z,13.82
2022-09-26T07:03:46.284Z,13.90
2022-09-26T07:06:33.922Z,13.82
2022-09-26T07:09:06.390Z,13.87
2022-09-26T07:14:43.507Z,13.88
2022-09-26T07:17:22.872Z,13.90
2022-09-26T07:20:18.544Z,13.85
2022-09-26T07:23:16.504Z,13.82
2022-09-26T07:25:46.943Z,13.88
2022-09-26T07:28:16.964Z,13.90
2022-09-26T07:30:50.375Z,13.92
2022-09-26T07:33:29.065Z,13.69
2022-09-26T07:36:05.304Z,13.66
2022-09-26T07:38:33.910Z,13.69
2022-09-26T07:41:02.204Z,13.80
2022-09-26T07:44:26.775Z,13.80
2022-09-26T07:46:39.896Z,13.95
2022-09-26T07:49:25.417Z,13.92
2022-09-26T07:52:17.626Z,13.80
2022-09-26T07:55:19.346Z,13.88
2022-09-26T07:57:59.426Z,14.08
2022-09-26T08:00:46.949Z,14.08
2022-09-26T08:03:33.732Z,14.12
2022-09-26T08:06:06.381Z,14.12
2022-09-26T08:08:34.656Z,14.11
2022-09-26T08:11:23.928Z,14.28
2022-09-26T08:14:11.062Z,14.33
2022-09-26T08:16:55.785Z,14.33
2022-09-26T08:19:25.807Z,14.43
2022-09-26T08:21:53.913Z,14.55
2022-09-26T08:24:22.182Z,14.60
2022-09-26T08:27:14.635Z,14.64
2022-09-26T08:29:48.616Z,14.66
2022-09-26T08:32:20.064Z,14.72
2022-09-26T08:34:49.334Z,14.59
2022-09-26T08:37:49.739Z,14.57
2022-09-26T08:40:53.036Z,14.60
2022-09-26T08:43:52.347Z,14.84
2022-09-26T08:46:59.834Z,14.79
2022-09-26T08:50:10.089Z,14.66
2022-09-26T08:52:42.955Z,14.79
2022-09-26T08:55:16.985Z,14.84
2022-09-26T08:57:49.228Z,15.07
2022-09-26T09:00:20.748Z,15.10
2022-09-26T09:03:15.196Z,15.18
2022-09-26T09:05:50.870Z,15.28
2022-09-26T09:08:23.951Z,15.28
2022-09-26T09:11:22.219Z,15.18
2022-09-26T09:14:05.291Z,15.32
2022-09-26T09:17:07.959Z,15.27
2022-09-26T09:20:08.614Z,15.27
2022-09-26T09:23:15.552Z,15.38
2022-09-26T09:25:52.189Z,15.34
2022-09-26T09:28:33.584Z,15.42
2022-09-26T09:31:03.488Z,15.56
2022-09-26T09:33:53.579Z,15.56
2022-09-26T09:36:35.782Z,15.66
2022-09-26T09:39:30.976Z,15.79
2022-09-26T09:42:11.281Z,15.70
2022-09-26T09:44:47.080Z,15.70
2022-09-26T09:47:17.628Z,15.83
2022-09-26T09:49:48.374Z,15.80
2022-09-26T09:52:47.334Z,15.63
2022-09-26T09:55:33.425Z,15.65
2022-09-26T09:58:22.510Z,15.87
2022-09-26T10:01:01.610Z,15.93
2022-09-26T10:03:40.032Z,15.98
2022-09-26T10:06:45.547Z,16.01
2022-09-26T10:08:58.609Z,16.06
2022-09-26T10:12:19.202Z,16.07
2022-09-26T10:15:07.795Z,16.14
2022-09-26T10:18:25.370Z,16.15
2022-09-26T10:21:09.129Z,16.01
2022-09-26T10:23:40.440Z,16.22
2022-09-26T10:26:15.195Z,16.07
2022-09-26T10:28:49.502Z,15.90
2022-09-26T10:31:24.905Z,15.82
2022-09-26T10:34:24.651Z,16.20
2022-09-26T10:36:53.933Z,16.36
2022-09-26T10:39:41.985Z,16.48
2022-09-26T10:42:19.080Z,16.69
2022-09-26T10:44:50.925Z,16.51
2022-09-26T10:47:25.696Z,16.55
2022-09-26T10:50:16.649Z,16.45
2022-09-26T10:53:24.235Z,16.32
2022-09-26T10:55:57.819Z,16.58
2022-09-26T10:58:29.714Z,16.83
2022-09-26T11:01:07.272Z,16.99
2022-09-26T11:03:43.081Z,17.10
2022-09-26T11:06:25.836Z,17.21
2022-09-26T11:09:02.512Z,17.26
2022-09-26T11:11:52.805Z,17.32
2022-09-26T11:14:28.421Z,17.45
2022-09-26T11:17:19.377Z,17.45
2022-09-26T11:19:57.702Z,17.54
2022-09-26T11:22:31.741Z,17.44
2022-09-26T11:25:08.056Z,17.44
2022-09-26T11:27:42.734Z,17.39
2022-09-26T11:30:15.293Z,17.30
2022-09-26T11:32:56.099Z,17.17
2022-09-26T11:35:50.030Z,17.02
2022-09-26T11:38:39.245Z,16.94
2022-09-26T11:41:36.697Z,17.18
2022-09-26T11:44:36.605Z,17.23
2022-09-26T11:47:46.955Z,17.31
2022-09-26T11:50:51.107Z,17.27
2022-09-26T11:53:40.531Z,17.28
2022-09-26T11:56:23.539Z,17.32
2022-09-26T11:59:01.003Z,17.35
2022-09-26T12:01:40.121Z,17.45
2022-09-26T12:04:28.121Z,17.58
2022-09-26T12:07:05.488Z,17.64
2022-09-26T12:09:49.738Z,17.51
2022-09-26T12:12:21.809Z,17.61
2022-09-26T12:15:02.499Z,17.11
2022-09-26T12:17:44.941Z,17.61
2022-09-26T12:20:25.506Z,18.13
2022-09-26T12:23:01.737Z,18.34
2022-09-26T12:25:40.118Z,18.55
2022-09-26T12:28:33.834Z,18.58
2022-09-26T12:31:12.466Z,18.81
2022-09-26T12:33:59.190Z,18.81
2022-09-26T12:36:47.482Z,18.87
2022-09-26T12:39:38.144Z,18.64
2022-09-26T12:42:22.342Z,18.84
2022-09-26T12:45:11.445Z,18.95
2022-09-26T12:48:06.838Z,18.81
2022-09-26T12:50:47.923Z,18.94
2022-09-26T12:54:03.422Z,19.24
2022-09-26T12:56:47.718Z,19.15
2022-09-26T12:59:38.873Z,19.02
2022-09-26T13:02:33.694Z,19.23
2022-09-26T13:05:25.011Z,19.47
2022-09-26T13:08:03.722Z,19.54
2022-09-26T13:10:44.998Z,19.50
2022-09-26T13:13:47.058Z,19.51
2022-09-26T13:16:26.626Z,19.92
2022-09-26T13:19:01.684Z,20.09
2022-09-26T13:21:44.273Z,20.09
2022-09-26T13:24:18.814Z,19.98
2022-09-26T13:26:52.486Z,19.71
2022-09-26T13:29:27.964Z,19.33
2022-09-26T13:32:05.808Z,19.19
2022-09-26T13:34:40.039Z,19.20
2022-09-26T13:37:20.823Z,19.26
2022-09-26T13:39:54.488Z,19.15
2022-09-26T13:42:34.964Z,19.41
2022-09-26T13:45:18.146Z,19.27
2022-09-26T13:47:51.960Z,19.13
2022-09-26T13:50:25.075Z,19.24
2022-09-26T13:53:06.949Z,19.28
2022-09-26T13:55:36.611Z,19.23
2022-09-26T13:58:08.091Z,19.40
2022-09-26T14:00:49.431Z,19.41
2022-09-26T14:03:46.526Z,19.74
2022-09-26T14:06:32.754Z,19.54
2022-09-26T14:09:25.070Z,19.22
2022-09-26T14:12:09.445Z,19.17
2022-09-26T14:14:46.233Z,19.05
2022-09-26T14:17:53.966Z,19.26
2022-09-26T14:20:28.049Z,19.13
2022-09-26T14:22:58.190Z,19.13
2022-09-26T14:25:58.446Z,18.85
2022-09-26T14:28:33.967Z,18.81
2022-09-26T14:31:26.211Z,18.71
2022-09-26T14:34:12.301Z,18.68
2022-09-26T14:36:43.213Z,18.73
2022-09-26T14:39:25.731Z,18.72
2022-09-26T14:41:55.779Z,19.05
2022-09-26T14:44:24.409Z,18.75
2022-09-26T14:46:56.206Z,18.29
2022-09-26T14:49:27.642Z,18.26
2022-09-26T14:52:07.504Z,18.33
2022-09-26T14:54:40.621Z,18.27
2022-09-26T14:57:21.115Z,18.43
2022-09-26T14:59:49.789Z,18.38
2022-09-26T15:02:38.785Z,18.57
2022-09-26T15:05:22.025Z,18.68
2022-09-26T15:07:53.295Z,18.41
2022-09-26T15:10:29.377Z,18.71
2022-09-26T15:13:05.550Z,19.06
2022-09-26T15:15:47.099Z,19.19
2022-09-26T15:18:24.561Z,19.31
2022-09-26T15:21:04.238Z,19.49
2022-09-26T15:23:35.823Z,19.60
2022-09-26T15:26:06.208Z,19.77
2022-09-26T15:28:37.898Z,19.85
2022-09-26T15:31:24.707Z,19.78
2022-09-26T15:33:57.425Z,19.77
2022-09-26T15:36:29.793Z,19.72
2022-09-26T15:39:01.116Z,19.63
2022-09-26T15:41:47.057Z,19.72
2022-09-26T15:44:20.599Z,19.67
2022-09-26T15:46:52.848Z,19.50
2022-09-26T15:49:22.654Z,19.38
2022-09-26T15:51:54.543Z,19.37
2022-09-26T15:54:29.236Z,19.38
2022-09-26T15:57:02.179Z,19.36
2022-09-26T15:59:37.409Z,19.40
2022-09-26T16:02:23.112Z,19.43
2022-09-26T16:04:55.152Z,19.40
2022-09-26T16:07:26.592Z,19.02
2022-09-26T16:09:59.382Z,18.87
2022-09-26T16:12:29.914Z,18.85
2022-09-26T16:15:02.869Z,18.91
2022-09-26T16:17:35.922Z,18.98
2022-09-26T16:20:23.283Z,18.99
2022-09-26T16:22:59.157Z,18.92
2022-09-26T16:25:35.214Z,18.69
2022-09-26T16:28:23.010Z,18.50
2022-09-26T16:31:11.225Z,17.95
2022-09-26T16:33:40.660Z,17.90
2022-09-26T16:36:18.885Z,17.99
2022-09-26T16:38:53.256Z,17.86
2022-09-26T16:41:56.409Z,17.78
2022-09-26T16:44:34.358Z,17.61
2022-09-26T16:47:05.705Z,17.44
2022-09-26T16:49:46.977Z,17.32
2022-09-26T16:52:29.553Z,17.24
2022-09-26T16:55:00.281Z,17.06
2022-09-26T16:57:35.111Z,17.04
2022-09-26T17:00:23.775Z,16.94
2022-09-26T17:02:52.318Z,16.84
2022-09-26T17:05:22.392Z,16.52
2022-09-26T17:07:50.927Z,16.52
2022-09-26T17:10:20.879Z,16.49
2022-09-26T17:12:53.229Z,16.35
2022-09-26T17:15:26.866Z,16.38
2022-09-26T17:17:57.309Z,15.83
2022-09-26T17:20:26.959Z,15.32
2022-09-26T17:22:56.060Z,14.87
2022-09-26T17:25:26.080Z,14.37
2022-09-26T17:27:59.849Z,14.14
2022-09-26T17:30:28.050Z,14.30
2022-09-26T17:32:56.520Z,14.28
2022-09-26T17:35:27.982Z,14.29
2022-09-26T17:37:57.117Z,14.35
2022-09-26T17:40:26.934Z,14.40
2022-09-26T17:42:58.135Z,14.35
2022-09-26T17:45:30.356Z,14.36
2022-09-26T17:48:00.732Z,14.19
2022-09-26T17:50:33.135Z,14.14
2022-09-26T17:53:03.393Z,14.15
2022-09-26T17:55:38.199Z,14.07
2022-09-26T17:58:10.897Z,14.08
2022-09-26T18:00:41.262Z,14.19
2022-09-26T18:03:19.089Z,14.12
2022-09-26T18:05:48.488Z,14.15
2022-09-26T18:08:22.202Z,14.19
2022-09-26T18:10:54.234Z,14.25
2022-09-26T18:13:27.729Z,14.24
2022-09-26T18:15:57.950Z,14.39
2022-09-26T18:18:29.044Z,14.43
2022-09-26T18:20:59.012Z,14.40
2022-09-26T18:23:30.111Z,14.33
2022-09-26T18:25:59.969Z,14.05
2022-09-26T18:28:29.800Z,13.75
2022-09-26T18:31:01.153Z,13.84
2022-09-26T18:33:37.143Z,13.92
2022-09-26T18:36:06.563Z,13.53
2022-09-26T18:38:35.777Z,13.52
2022-09-26T18:41:07.446Z,13.36
2022-09-26T18:43:42.411Z,13.06
2022-09-26T18:46:14.327Z,12.94
2022-09-26T18:48:43.135Z,13.20
2022-09-26T18:51:12.245Z,13.13
2022-09-26T18:53:41.857Z,13.04
2022-09-26T18:56:29.370Z,13.19
2022-09-26T18:58:59.563Z,13.08
2022-09-26T19:01:31.620Z,13.06
2022-09-26T19:04:02.436Z,13.11
2022-09-26T19:06:34.500Z,13.13
2022-09-26T19:09:11.326Z,13.23
2022-09-26T19:11:39.735Z,13.19
2022-09-26T19:14:15.545Z,13.01
2022-09-26T19:16:44.568Z,12.81
2022-09-26T19:19:13.893Z,12.84
2022-09-26T19:21:44.924Z,12.75
2022-09-26T19:24:20.858Z,12.77
2022-09-26T19:26:54.905Z,12.81
2022-09-26T19:29:31.297Z,12.84
2022-09-26T19:32:00.418Z,12.87
2022-09-26T19:34:32.743Z,12.91
2022-09-26T19:37:04.048Z,12.84
2022-09-26T19:39:32.984Z,12.91
2022-09-26T19:42:01.743Z,13.01
2022-09-26T19:44:31.793Z,13.12
2022-09-26T19:47:00.211Z,13.19
2022-09-26T19:49:30.086Z,13.27
2022-09-26T19:52:01.193Z,13.32
2022-09-26T19:54:30.080Z,13.27
2022-09-26T19:56:58.863Z,13.27
2022-09-26T19:59:27.798Z,13.11
2022-09-26T20:01:57.691Z,13.15
2022-09-26T20:04:25.874Z,13.01
2022-09-26T20:06:54.106Z,12.92
2022-09-26T20:09:22.276Z,13.05
2022-09-26T20:11:50.393Z,13.02
2022-09-26T20:14:27.353Z,13.09
2022-09-26T20:16:59.718Z,13.12
2022-09-26T20:19:34.692Z,13.12
2022-09-26T20:22:04.216Z,12.99
2022-09-26T20:24:33.609Z,12.89
2022-09-26T20:27:04.195Z,12.67
2022-09-26T20:29:57.295Z,12.64
2022-09-26T20:32:26.996Z,12.64
2022-09-26T20:35:00.567Z,12.53
2022-09-26T20:37:29.552Z,12.71
2022-09-26T20:39:58.269Z,12.85
2022-09-26T20:42:35.334Z,12.92
2022-09-26T20:45:03.974Z,12.88
2022-09-26T20:47:37.413Z,12.83
2022-09-26T20:50:06.562Z,12.75
2022-09-26T20:52:34.663Z,12.87
2022-09-26T20:55:02.770Z,12.89
2022-09-26T20:57:30.977Z,12.91
2022-09-26T20:59:59.256Z,12.87
2022-09-26T21:02:30.141Z,12.78
2022-09-26T21:05:01.999Z,12.30
2022-09-26T21:07:33.020Z,12.05
2022-09-26T21:10:01.087Z,12.13
2022-09-26T21:12:29.248Z,12.41
2022-09-26T21:14:57.824Z,12.65
2022-09-26T21:17:28.750Z,12.69
2022-09-26T21:19:57.661Z,12.65
2022-09-26T21:22:49.488Z,12.69
2022-09-26T21:25:19.876Z,12.74
2022-09-26T21:27:50.924Z,12.77
2022-09-26T21:30:20.231Z,12.74
2022-09-26T21:32:51.661Z,12.80
2022-09-26T21:35:21.974Z,12.83
2022-09-26T21:37:53.879Z,12.71
2022-09-26T21:40:26.356Z,12.60
2022-09-26T21:42:59.901Z,12.64
2022-09-26T21:45:28.020Z,12.64
2022-09-26T21:47:57.991Z,12.65
2022-09-26T21:50:32.252Z,12.47
2022-09-26T21:53:07.078Z,12.47
2022-09-26T21:55:39.214Z,12.39
2022-09-26T21:58:13.152Z,12.43
2022-09-26T22:00:41.629Z,12.43
2022-09-26T22:03:10.035Z,12.43
2022-09-26T22:05:38.233Z,12.40
2022-09-26T22:08:07.982Z,12.39
2022-09-26T22:10:43.109Z,12.41
2022-09-26T22:13:11.320Z,12.44
2022-09-26T22:15:39.544Z,12.41
2022-09-26T22:18:07.613Z,12.29
2022-09-26T22:20:36.025Z,12.28
2022-09-26T22:23:04.641Z,12.25
2022-09-26T22:25:36.289Z,12.32
2022-09-26T22:28:06.708Z,12.34
2022-09-26T22:30:34.839Z,12.29
2022-09-26T22:33:03.035Z,12.34
2022-09-26T22:35:31.556Z,12.41
2022-09-26T22:37:59.570Z,12.44
2022-09-26T22:40:28.151Z,12.46
2022-09-26T22:42:58.830Z,12.40
2022-09-26T22:45:27.420Z,12.40
2022-09-26T22:47:55.589Z,12.47
2022-09-26T22:50:23.669Z,12.54
2022-09-26T22:52:51.886Z,12.60
2022-09-26T22:55:20.249Z,12.58
2022-09-26T22:57:51.089Z,12.57
2022-09-26T23:00:20.789Z,12.53
2022-09-26T23:02:48.920Z,12.47
2022-09-26T23:05:17.110Z,12.41
2022-09-26T23:07:45.563Z,12.39
2022-09-26T23:10:13.875Z,12.48
2022-09-26T23:12:42.246Z,12.39
2022-09-26T23:15:11.253Z,12.29
2022-09-26T23:17:40.741Z,12.43
2022-09-26T23:20:09.857Z,12.60
2022-09-26T23:22:39.799Z,12.64
2022-09-26T23:25:08.526Z,12.71
2022-09-26T23:27:36.997Z,12.64
2022-09-26T23:30:05.621Z,12.51
2022-09-26T23:32:33.647Z,12.56
2022-09-26T23:35:03.168Z,12.50
2022-09-26T23:37:31.586Z,12.61
2022-09-26T23:39:59.663Z,12.74
2022-09-26T23:42:27.984Z,12.58
2022-09-26T23:44:56.091Z,12.32
2022-09-26T23:47:24.169Z,12.48
2022-09-26T23:49:52.278Z,12.51
2022-09-26T23:52:22.034Z,12.40
2022-09-26T23:54:50.162Z,12.50
2022-09-26T23:57:18.735Z,12.54
2022-09-26T23:59:46.836Z,12.58
